createdAt,value
2018-10-16T03:01:00.961Z,0.00
2018-10-16T03:02:01.951Z,0.00
2018-10-16T03:03:00.928Z,0.00
2018-10-16T03:04:01.082Z,0.00
2018-10-16T03:05:01.210Z,0.00
2018-10-16T03:06:01.307Z,0.00
2018-10-16T03:07:01.605Z,0.00
2018-10-16T03:08:01.688Z,0.00
2018-10-16T03:09:02.840Z,0.00
2018-10-16T03:10:01.974Z,0.00
2018-10-16T03:11:02.298Z,0.00
2018-10-16T03:12:02.295Z,0.00
2018-10-16T03:13:02.553Z,0.00
2018-10-16T03:14:02.678Z,0.00
2018-10-16T03:15:02.833Z,0.00
2018-10-16T03:16:02.976Z,0.00
2018-10-16T03:17:03.101Z,0.00
2018-10-16T03:18:03.339Z,0.00
2018-10-16T03:19:03.436Z,0.00
2018-10-16T03:20:03.617Z,0.00
2018-10-16T03:21:03.750Z,0.00
2018-10-16T03:22:03.934Z,0.00
2018-10-16T03:23:04.143Z,0.00
2018-10-16T03:24:04.304Z,0.00
2018-10-16T03:25:04.438Z,0.00
2018-10-16T03:26:04.586Z,0.00
2018-10-16T03:27:04.801Z,0.00
2018-10-16T03:28:04.894Z,0.00
2018-10-16T03:29:05.133Z,0.00
2018-10-16T03:30:05.277Z,0.00
2018-10-16T03:31:05.449Z,0.00
2018-10-16T03:32:05.589Z,0.00
2018-10-16T03:33:05.738Z,0.00
2018-10-16T03:34:05.915Z,0.00
2018-10-16T03:35:06.024Z,0.00
2018-10-16T03:36:06.281Z,0.00
2018-10-16T03:37:06.425Z,0.00
2018-10-16T03:38:06.544Z,0.00
2018-10-16T03:39:06.737Z,0.00
2018-10-16T03:40:06.963Z,0.00
2018-10-16T03:41:07.084Z,0.00
2018-10-16T03:42:07.277Z,0.00
2018-10-16T03:43:07.415Z,0.00
2018-10-16T03:44:07.544Z,0.00
2018-10-16T03:45:07.650Z,0.00
2018-10-16T03:46:07.851Z,0.00
2018-10-16T03:47:08.051Z,0.00
2018-10-16T03:48:08.246Z,0.00
2018-10-16T03:49:08.376Z,0.00
2018-10-16T03:50:08.591Z,0.00
2018-10-16T03:51:08.784Z,0.00
2018-10-16T03:52:08.967Z,0.00
2018-10-16T03:53:09.094Z,0.00
2018-10-16T03:54:09.295Z,0.00
2018-10-16T03:55:09.468Z,0.00
2018-10-16T03:56:09.608Z,0.00
2018-10-16T03:57:09.749Z,0.00
2018-10-16T03:58:09.979Z,0.00
2018-10-16T03:59:10.089Z,0.00
2018-10-16T04:00:10.291Z,0.00
2018-10-16T04:01:10.500Z,0.00
2018-10-16T04:02:10.559Z,0.00
2018-10-16T04:03:10.796Z,0.00
2018-10-16T04:04:10.929Z,0.00
2018-10-16T04:05:11.195Z,0.00
2018-10-16T04:06:11.319Z,0.00
2018-10-16T04:07:11.485Z,0.00
2018-10-16T04:08:11.571Z,0.00
2018-10-16T04:09:11.739Z,0.00
2018-10-16T04:10:11.906Z,0.00
2018-10-16T04:11:12.091Z,0.00
2018-10-16T04:12:12.237Z,0.00
2018-10-16T04:13:12.437Z,0.00
2018-10-16T04:14:12.615Z,0.00
2018-10-16T04:15:12.737Z,0.00
2018-10-16T04:16:12.920Z,0.00
2018-10-16T04:17:13.086Z,0.00
2018-10-16T04:18:13.316Z,0.00
2018-10-16T04:19:13.423Z,0.00
2018-10-16T04:20:13.573Z,0.00
2018-10-16T04:21:13.850Z,0.00
2018-10-16T04:22:13.920Z,0.00
2018-10-16T04:23:14.093Z,0.00
2018-10-16T04:24:14.256Z,0.00
2018-10-16T04:25:14.405Z,0.00
2018-10-16T04:26:14.644Z,0.00
2018-10-16T04:27:14.769Z,0.00
2018-10-16T04:28:14.974Z,0.00
2018-10-16T04:29:15.171Z,0.00
2018-10-16T04:30:15.338Z,0.00
2018-10-16T04:31:15.428Z,0.00
2018-10-16T04:32:15.625Z,0.00
2018-10-16T04:33:15.755Z,0.00
2018-10-16T04:34:16.135Z,0.00
2018-10-16T04:35:16.147Z,0.00
2018-10-16T04:36:16.552Z,0.00
2018-10-16T04:37:16.431Z,0.00
2018-10-16T04:38:16.644Z,0.00
2018-10-16T04:39:16.714Z,0.00
2018-10-16T04:40:17.092Z,0.00
2018-10-16T04:41:17.140Z,0.00
2018-10-16T04:42:17.397Z,0.00
2018-10-16T04:43:17.499Z,0.00
2018-10-16T04:44:17.598Z,0.00
2018-10-16T04:45:17.863Z,0.00
2018-10-16T04:46:17.963Z,0.00
2018-10-16T04:47:18.258Z,0.00
2018-10-16T04:48:18.288Z,0.00
2018-10-16T04:49:18.571Z,0.00
2018-10-16T04:50:18.697Z,0.00
2018-10-16T04:51:18.894Z,0.00
2018-10-16T04:52:19.058Z,0.00
2018-10-16T04:53:19.329Z,0.00
2018-10-16T04:54:19.311Z,0.00
2018-10-16T04:55:21.196Z,0.00
2018-10-16T04:56:19.751Z,0.00
2018-10-16T04:57:20.004Z,0.00
2018-10-16T04:58:20.116Z,0.00
2018-10-16T04:59:20.224Z,0.00
2018-10-16T05:00:20.456Z,0.00
2018-10-16T05:01:20.714Z,0.00
2018-10-16T05:02:20.958Z,0.00
2018-10-16T05:03:20.992Z,0.00
2018-10-16T05:04:21.221Z,0.00
2018-10-16T05:05:21.294Z,0.00
2018-10-16T05:06:21.503Z,0.00
2018-10-16T05:07:30.657Z,0.00
2018-10-16T05:08:21.768Z,0.00
2018-10-16T05:09:22.019Z,0.00
2018-10-16T05:10:22.120Z,0.00
2018-10-16T05:11:22.286Z,0.00
2018-10-16T05:12:22.421Z,0.00
2018-10-16T05:13:22.641Z,0.00
2018-10-16T05:14:22.768Z,0.00
2018-10-16T05:15:22.916Z,0.00
2018-10-16T05:16:23.941Z,4.00
2018-10-16T05:17:23.275Z,4.00
2018-10-16T05:18:23.598Z,0.00
2018-10-16T05:19:23.725Z,4.00
2018-10-16T05:20:23.830Z,4.00
2018-10-16T05:21:24.440Z,8.00
2018-10-16T05:22:25.219Z,8.00
2018-10-16T05:23:24.296Z,8.00
2018-10-16T05:24:24.717Z,12.00
2018-10-16T05:25:24.595Z,12.00
2018-10-16T05:26:24.798Z,12.00
2018-10-16T05:27:31.115Z,16.00
2018-10-16T05:28:25.109Z,24.00
2018-10-16T05:29:25.390Z,28.00
2018-10-16T05:30:26.228Z,32.00
2018-10-16T05:31:27.789Z,36.00
2018-10-16T05:32:25.805Z,40.00
2018-10-16T05:33:25.855Z,52.00
2018-10-16T05:34:26.021Z,60.00
2018-10-16T05:35:26.503Z,64.00
2018-10-16T05:36:26.512Z,76.00
2018-10-16T05:37:33.131Z,88.00
2018-10-16T05:38:26.788Z,100.00
2018-10-16T05:39:27.243Z,112.00
2018-10-16T05:40:27.280Z,124.00
2018-10-16T05:41:27.370Z,140.00
2018-10-16T05:42:28.232Z,156.00
2018-10-16T05:43:27.894Z,172.00
2018-10-16T05:44:27.783Z,188.00
2018-10-16T05:45:27.918Z,208.00
2018-10-16T05:46:28.620Z,224.00
2018-10-16T05:47:28.745Z,248.00
2018-10-16T05:48:28.475Z,272.00
2018-10-16T05:49:28.858Z,300.00
2018-10-16T05:50:28.718Z,332.00
2018-10-16T05:51:28.978Z,364.00
2018-10-16T05:52:29.329Z,408.00
2018-10-16T05:53:29.248Z,456.00
2018-10-16T05:54:29.636Z,500.00
2018-10-16T05:55:29.760Z,552.00
2018-10-16T05:56:30.070Z,608.00
2018-10-16T05:57:30.090Z,664.00
2018-10-16T05:58:30.503Z,728.00
2018-10-16T05:59:30.602Z,796.00
2018-10-16T06:00:30.631Z,868.00
2018-10-16T06:01:31.181Z,944.00
2018-10-16T06:02:30.925Z,1020.00
2018-10-16T06:03:31.156Z,1108.00
2018-10-16T06:04:31.320Z,1188.00
2018-10-16T06:05:31.474Z,1276.00
2018-10-16T06:06:31.693Z,1356.00
2018-10-16T06:07:34.153Z,1432.00
2018-10-16T06:08:31.920Z,1504.00
2018-10-16T06:09:32.054Z,1572.00
2018-10-16T06:10:32.121Z,1636.00
2018-10-16T06:11:32.353Z,1700.00
2018-10-16T06:12:32.553Z,1764.00
2018-10-16T06:13:32.673Z,1840.00
2018-10-16T06:14:33.071Z,1920.00
2018-10-16T06:15:33.216Z,1992.00
2018-10-16T06:16:33.419Z,2036.00
2018-10-16T06:17:33.581Z,2072.00
2018-10-16T06:18:33.704Z,2108.00
2018-10-16T06:19:33.962Z,2168.00
2018-10-16T06:20:34.018Z,2232.00
2018-10-16T06:21:34.229Z,2304.00
2018-10-16T06:22:34.340Z,2376.00
2018-10-16T06:23:34.512Z,2432.00
2018-10-16T06:24:34.779Z,2496.00
2018-10-16T06:25:34.867Z,2572.00
2018-10-16T06:26:35.107Z,2652.00
2018-10-16T06:27:35.284Z,2728.00
2018-10-16T06:28:35.521Z,2788.00
2018-10-16T06:29:35.518Z,2844.00
2018-10-16T06:30:35.695Z,2920.00
2018-10-16T06:31:35.888Z,2988.00
2018-10-16T06:32:36.075Z,3036.00
2018-10-16T06:33:36.190Z,3084.00
2018-10-16T06:34:37.408Z,3148.00
2018-10-16T06:35:36.542Z,3236.00
2018-10-16T06:36:36.729Z,3332.00
2018-10-16T06:37:36.717Z,3432.00
2018-10-16T06:38:36.926Z,3532.00
2018-10-16T06:39:37.218Z,3628.00
2018-10-16T06:40:37.344Z,3688.00
2018-10-16T06:41:37.516Z,3740.00
2018-10-16T06:42:37.630Z,3820.00
2018-10-16T06:43:37.776Z,3880.00
2018-10-16T06:44:37.997Z,3912.00
2018-10-16T06:45:38.188Z,3924.00
2018-10-16T06:46:38.375Z,3944.00
2018-10-16T06:47:38.571Z,3948.00
2018-10-16T06:48:39.040Z,3980.00
2018-10-16T06:49:38.825Z,4048.00
2018-10-16T06:50:39.092Z,4108.00
2018-10-16T06:51:39.227Z,4168.00
2018-10-16T06:52:39.320Z,4232.00
2018-10-16T06:53:39.489Z,4300.00
2018-10-16T06:54:39.640Z,4316.00
2018-10-16T06:55:39.927Z,4312.00
2018-10-16T06:56:39.966Z,4344.00
2018-10-16T06:57:40.223Z,4400.00
2018-10-16T06:58:40.330Z,4488.00
2018-10-16T06:59:40.469Z,4576.00
2018-10-16T07:00:40.677Z,4660.00
2018-10-16T07:01:40.897Z,4764.00
2018-10-16T07:02:41.111Z,4880.00
2018-10-16T07:03:41.253Z,5000.00
2018-10-16T07:04:41.483Z,4996.00
2018-10-16T07:05:41.604Z,5008.00
2018-10-16T07:06:41.785Z,5064.00
2018-10-16T07:07:42.015Z,5124.00
2018-10-16T07:08:42.138Z,5176.00
2018-10-16T07:09:42.324Z,5236.00
2018-10-16T07:10:42.515Z,5336.00
2018-10-16T07:11:42.602Z,5460.00
2018-10-16T07:12:42.896Z,5628.00
2018-10-16T07:13:42.997Z,5880.00
2018-10-16T07:14:43.226Z,6056.00
2018-10-16T07:15:43.359Z,6232.00
2018-10-16T07:16:43.460Z,6540.00
2018-10-16T07:17:43.785Z,6840.00
2018-10-16T07:18:43.919Z,7312.00
2018-10-16T07:19:44.139Z,7852.00
2018-10-16T07:20:44.239Z,8164.00
2018-10-16T07:21:44.549Z,8136.00
2018-10-16T07:22:44.588Z,8064.00
2018-10-16T07:23:44.876Z,8224.00
2018-10-16T07:24:44.924Z,8356.00
2018-10-16T07:25:45.322Z,8000.00
2018-10-16T07:26:45.380Z,7932.00
2018-10-16T07:27:45.559Z,7852.00
2018-10-16T07:28:45.656Z,7860.00
2018-10-16T07:29:45.805Z,7948.00
2018-10-16T07:30:45.907Z,7756.00
2018-10-16T07:31:46.163Z,7156.00
2018-10-16T07:32:46.311Z,7248.00
2018-10-16T07:33:46.564Z,7564.00
2018-10-16T07:34:46.643Z,7828.00
2018-10-16T07:35:46.884Z,7948.00
2018-10-16T07:36:47.050Z,8040.00
2018-10-16T07:37:47.250Z,8276.00
2018-10-16T07:38:47.349Z,8432.00
2018-10-16T07:39:47.471Z,8492.00
2018-10-16T07:40:47.689Z,9292.00
2018-10-16T07:41:47.835Z,9216.00
2018-10-16T07:42:48.132Z,7444.00
2018-10-16T07:43:48.225Z,6948.00
2018-10-16T07:44:48.473Z,6348.00
2018-10-16T07:45:48.568Z,6116.00
2018-10-16T07:46:48.750Z,6052.00
2018-10-16T07:47:48.860Z,6052.00
2018-10-16T07:48:49.081Z,6124.00
2018-10-16T07:49:49.223Z,6296.00
2018-10-16T07:50:49.360Z,6572.00
2018-10-16T07:51:49.556Z,6740.00
2018-10-16T07:52:49.708Z,6652.00
2018-10-16T07:53:49.834Z,6576.00
2018-10-16T07:54:50.055Z,6496.00
2018-10-16T07:55:50.239Z,6540.00
2018-10-16T07:56:50.322Z,6600.00
2018-10-16T07:57:50.576Z,6472.00
2018-10-16T07:58:50.688Z,6396.00
2018-10-16T07:59:50.835Z,6408.00
2018-10-16T08:00:51.113Z,6412.00
2018-10-16T08:01:51.227Z,6348.00
2018-10-16T08:02:51.453Z,6392.00
2018-10-16T08:03:51.624Z,6572.00
2018-10-16T08:04:51.859Z,6748.00
2018-10-16T08:05:52.034Z,6860.00
2018-10-16T08:06:52.088Z,7012.00
2018-10-16T08:07:52.388Z,7204.00
2018-10-16T08:08:52.422Z,7356.00
2018-10-16T08:09:52.724Z,7488.00
2018-10-16T08:10:52.878Z,7504.00
2018-10-16T08:11:52.970Z,7528.00
2018-10-16T08:12:53.157Z,7516.00
2018-10-16T08:13:53.348Z,7428.00
2018-10-16T08:14:53.491Z,7356.00
2018-10-16T08:15:53.609Z,7264.00
2018-10-16T08:16:53.771Z,7176.00
2018-10-16T08:17:53.927Z,7064.00
2018-10-16T08:18:54.185Z,6964.00
2018-10-16T08:19:54.342Z,6868.00
2018-10-16T08:20:54.451Z,6744.00
2018-10-16T08:21:54.619Z,6592.00
2018-10-16T08:22:54.788Z,6460.00
2018-10-16T08:23:54.945Z,6360.00
2018-10-16T08:24:55.228Z,6308.00
2018-10-16T08:25:55.309Z,6280.00
2018-10-16T08:26:55.693Z,6272.00
2018-10-16T08:27:55.587Z,6292.00
2018-10-16T08:28:55.798Z,6316.00
2018-10-16T08:29:55.992Z,6348.00
2018-10-16T08:30:56.107Z,6364.00
2018-10-16T08:31:56.406Z,6384.00
2018-10-16T08:32:56.424Z,6404.00
2018-10-16T08:33:56.573Z,6436.00
2018-10-16T08:34:56.818Z,6480.00
2018-10-16T08:35:56.892Z,6560.00
2018-10-16T08:36:57.186Z,6668.00
2018-10-16T08:37:57.285Z,6768.00
2018-10-16T08:38:57.382Z,6848.00
2018-10-16T08:39:57.617Z,6916.00
2018-10-16T08:40:57.690Z,6988.00
2018-10-16T08:41:57.884Z,7076.00
2018-10-16T08:42:58.077Z,7188.00
2018-10-16T08:43:58.385Z,7324.00
2018-10-16T08:44:58.546Z,7440.00
2018-10-16T08:45:58.693Z,7524.00
2018-10-16T08:46:58.824Z,7616.00
2018-10-16T08:47:59.823Z,7728.00
2018-10-16T08:48:59.220Z,7884.00
2018-10-16T08:49:59.593Z,8024.00
2018-10-16T08:51:00.190Z,8160.00
2018-10-16T08:51:59.734Z,8288.00
2018-10-16T08:52:59.951Z,8412.00
2018-10-16T08:54:00.139Z,8592.00
2018-10-16T08:55:00.298Z,8848.00
2018-10-16T08:56:00.482Z,9072.00
2018-10-16T08:57:00.841Z,9520.00
2018-10-16T08:58:00.719Z,9816.00
2018-10-16T08:59:01.008Z,10000.00
2018-10-16T09:00:01.141Z,10376.00
2018-10-16T09:01:01.392Z,10160.00
2018-10-16T09:02:01.392Z,10164.00
2018-10-16T09:03:01.679Z,10376.00
2018-10-16T09:04:01.766Z,10412.00
2018-10-16T09:05:01.971Z,10540.00
2018-10-16T09:06:02.633Z,10684.00
2018-10-16T09:07:02.564Z,11080.00
2018-10-16T09:08:02.605Z,11512.00
2018-10-16T09:09:02.840Z,11836.00
2018-10-16T09:10:02.923Z,12496.00
2018-10-16T09:11:03.089Z,14284.00
2018-10-16T09:12:03.341Z,17312.00
2018-10-16T09:13:03.405Z,20032.00
2018-10-16T09:14:03.642Z,16000.00
2018-10-16T09:15:03.766Z,20640.00
2018-10-16T09:16:03.887Z,15936.00
2018-10-16T09:17:04.031Z,19968.00
2018-10-16T09:18:04.317Z,27264.00
2018-10-16T09:19:04.445Z,28512.00
2018-10-16T09:20:04.634Z,24704.00
2018-10-16T09:21:04.767Z,19776.00
2018-10-16T09:22:04.992Z,19168.00
2018-10-16T09:23:05.158Z,18912.00
2018-10-16T09:24:05.290Z,19968.00
2018-10-16T09:25:05.486Z,13980.00
2018-10-16T09:26:05.648Z,14036.00
2018-10-16T09:27:05.782Z,15392.00
2018-10-16T09:28:06.006Z,22016.00
2018-10-16T09:29:06.175Z,18592.00
2018-10-16T09:30:06.295Z,25408.00
2018-10-16T09:31:06.520Z,23584.00
2018-10-16T09:32:06.703Z,18080.00
2018-10-16T09:33:06.815Z,20480.00
2018-10-16T09:34:07.226Z,24096.00
2018-10-16T09:35:07.173Z,17024.00
2018-10-16T09:36:07.398Z,19712.00
2018-10-16T09:37:07.457Z,16928.00
2018-10-16T09:38:07.714Z,16704.00
2018-10-16T09:39:07.841Z,15304.00
2018-10-16T09:40:07.937Z,15292.00
2018-10-16T09:41:08.153Z,14972.00
2018-10-16T09:42:08.367Z,15064.00
2018-10-16T09:43:08.551Z,14688.00
2018-10-16T09:44:08.673Z,15160.00
2018-10-16T09:45:08.818Z,18112.00
2018-10-16T09:46:09.104Z,20768.00
2018-10-16T09:47:09.213Z,19392.00
2018-10-16T09:48:09.439Z,16384.00
2018-10-16T09:49:09.558Z,15168.00
2018-10-16T09:50:09.703Z,15560.00
2018-10-16T09:51:09.859Z,15448.00
2018-10-16T09:52:09.980Z,14996.00
2018-10-16T09:53:10.297Z,18720.00
2018-10-16T09:54:10.365Z,17600.00
2018-10-16T09:55:10.602Z,19616.00
2018-10-16T09:56:10.729Z,13984.00
2018-10-16T09:57:10.923Z,14428.00
2018-10-16T09:58:11.079Z,17824.00
2018-10-16T09:59:11.318Z,15180.00
2018-10-16T10:00:11.511Z,16864.00
2018-10-16T10:01:11.617Z,16052.00
2018-10-16T10:02:11.839Z,13224.00
2018-10-16T10:03:11.934Z,12392.00
2018-10-16T10:04:12.145Z,12940.00
2018-10-16T10:05:12.413Z,14500.00
2018-10-16T10:06:12.512Z,14732.00
2018-10-16T10:07:12.676Z,14320.00
2018-10-16T10:08:12.767Z,17760.00
2018-10-16T10:09:12.993Z,13992.00
2018-10-16T10:10:13.176Z,14708.00
2018-10-16T10:11:13.485Z,27264.00
2018-10-16T10:12:13.467Z,31040.00
2018-10-16T10:13:13.666Z,23392.00
2018-10-16T10:14:13.899Z,70400.00
2018-10-16T10:15:13.977Z,71488.00
2018-10-16T10:16:14.147Z,43328.00
2018-10-16T10:17:14.354Z,33952.00
2018-10-16T10:18:14.546Z,20832.00
2018-10-16T10:19:14.677Z,34784.00
2018-10-16T10:20:14.821Z,23584.00
2018-10-16T10:21:15.071Z,20288.00
2018-10-16T10:22:15.141Z,17568.00
2018-10-16T10:23:15.371Z,16736.00
2018-10-16T10:24:15.588Z,15400.00
2018-10-16T10:25:15.782Z,16960.00
2018-10-16T10:26:15.956Z,20320.00
2018-10-16T10:27:16.077Z,18368.00
2018-10-16T10:28:16.256Z,16004.00
2018-10-16T10:29:16.418Z,15688.00
2018-10-16T10:30:16.616Z,15244.00
2018-10-16T10:31:16.750Z,15124.00
2018-10-16T10:32:16.915Z,15308.00
2018-10-16T10:33:17.102Z,16320.00
2018-10-16T10:34:17.263Z,18208.00
2018-10-16T10:35:17.519Z,20896.00
2018-10-16T10:36:17.609Z,22624.00
2018-10-16T10:37:17.805Z,32672.00
2018-10-16T10:38:17.918Z,43328.00
2018-10-16T10:39:18.205Z,32192.00
2018-10-16T10:40:18.317Z,29472.00
2018-10-16T10:41:18.525Z,26464.00
2018-10-16T10:42:18.740Z,41888.00
2018-10-16T10:43:18.871Z,26816.00
2018-10-16T10:44:19.081Z,22720.00
2018-10-16T10:45:19.235Z,20640.00
2018-10-16T10:46:19.398Z,18624.00
2018-10-16T10:47:19.525Z,18208.00
2018-10-16T10:48:20.748Z,18112.00
2018-10-16T10:49:19.873Z,18144.00
2018-10-16T10:50:20.195Z,18624.00
2018-10-16T10:51:20.434Z,18944.00
2018-10-16T10:52:20.399Z,19328.00
2018-10-16T10:53:20.595Z,19712.00
2018-10-16T10:54:20.761Z,19872.00
2018-10-16T10:55:20.936Z,19712.00
2018-10-16T10:56:21.067Z,19648.00
2018-10-16T10:57:21.222Z,19840.00
2018-10-16T10:58:21.399Z,20064.00
2018-10-16T10:59:21.623Z,20544.00
2018-10-16T11:00:21.748Z,21024.00
2018-10-16T11:01:21.935Z,21216.00
2018-10-16T11:02:22.158Z,20800.00
2018-10-16T11:03:22.433Z,20000.00
2018-10-16T11:04:23.362Z,19200.00
2018-10-16T11:05:23.374Z,18624.00
2018-10-16T11:06:22.783Z,18176.00
2018-10-16T11:07:22.968Z,17920.00
2018-10-16T11:08:23.100Z,17824.00
2018-10-16T11:09:23.233Z,17344.00
2018-10-16T11:10:23.425Z,16992.00
2018-10-16T11:11:23.605Z,16896.00
2018-10-16T11:12:23.793Z,16960.00
2018-10-16T11:13:23.974Z,17344.00
2018-10-16T11:14:24.140Z,18048.00
2018-10-16T11:15:24.970Z,18592.00
2018-10-16T11:16:24.464Z,19424.00
2018-10-16T11:17:27.240Z,20320.00
2018-10-16T11:18:24.690Z,20992.00
2018-10-16T11:19:24.935Z,23808.00
2018-10-16T11:20:25.047Z,28192.00
2018-10-16T11:21:25.187Z,25632.00
2018-10-16T11:22:25.443Z,22976.00
2018-10-16T11:23:25.680Z,23616.00
2018-10-16T11:24:25.786Z,22016.00
2018-10-16T11:25:28.821Z,18464.00
2018-10-16T11:26:26.104Z,17472.00
2018-10-16T11:27:26.296Z,16800.00
2018-10-16T11:28:26.402Z,16256.00
2018-10-16T11:29:26.646Z,15608.00
2018-10-16T11:30:26.837Z,15144.00
2018-10-16T11:31:27.016Z,14716.00
2018-10-16T11:32:27.131Z,14328.00
2018-10-16T11:33:27.843Z,14016.00
2018-10-16T11:34:27.705Z,13688.00
2018-10-16T11:35:27.740Z,13412.00
2018-10-16T11:36:27.934Z,13220.00
2018-10-16T11:37:28.124Z,13104.00
2018-10-16T11:38:28.268Z,13052.00
2018-10-16T11:39:28.450Z,13044.00
2018-10-16T11:40:28.678Z,13028.00
2018-10-16T11:41:28.885Z,12996.00
2018-10-16T11:42:29.032Z,12932.00
2018-10-16T11:43:29.148Z,12868.00
2018-10-16T11:44:29.364Z,12796.00
2018-10-16T11:45:29.532Z,12712.00
2018-10-16T11:46:29.786Z,12624.00
2018-10-16T11:47:29.906Z,12540.00
2018-10-16T11:48:30.066Z,12476.00
2018-10-16T11:49:30.301Z,12428.00
2018-10-16T11:50:30.497Z,12400.00
2018-10-16T11:51:30.567Z,12376.00
2018-10-16T11:52:30.866Z,12404.00
2018-10-16T11:53:30.992Z,12480.00
2018-10-16T11:54:31.099Z,12632.00
2018-10-16T11:55:31.254Z,12860.00
2018-10-16T11:56:32.031Z,13212.00
2018-10-16T11:57:31.624Z,13596.00
2018-10-16T11:58:31.845Z,14012.00
2018-10-16T11:59:31.983Z,14420.00
2018-10-16T12:00:32.165Z,14676.00
2018-10-16T12:01:32.331Z,14744.00
2018-10-16T12:02:32.571Z,14724.00
2018-10-16T12:03:32.679Z,14776.00
2018-10-16T12:04:32.810Z,14856.00
2018-10-16T12:05:33.880Z,14784.00
2018-10-16T12:06:33.183Z,13752.00
2018-10-16T12:07:33.340Z,13156.00
2018-10-16T12:08:33.530Z,12764.00
2018-10-16T12:09:33.701Z,12416.00
2018-10-16T12:10:34.049Z,12164.00
2018-10-16T12:11:33.982Z,12008.00
2018-10-16T12:12:34.185Z,11896.00
2018-10-16T12:13:34.405Z,11820.00
2018-10-16T12:14:34.509Z,11824.00
2018-10-16T12:15:34.689Z,11916.00
2018-10-16T12:16:34.873Z,12048.00
2018-10-16T12:17:35.039Z,12276.00
2018-10-16T12:18:35.205Z,12776.00
2018-10-16T12:19:35.424Z,13216.00
2018-10-16T12:20:35.515Z,13552.00
2018-10-16T12:21:35.708Z,16960.00
2018-10-16T12:22:35.813Z,14584.00
2018-10-16T12:23:36.136Z,13368.00
2018-10-16T12:24:36.229Z,13540.00
2018-10-16T12:25:36.458Z,13920.00
2018-10-16T12:26:36.973Z,14320.00
2018-10-16T12:27:36.722Z,15184.00
2018-10-16T12:28:36.933Z,16800.00
2018-10-16T12:29:37.079Z,32448.00
2018-10-16T12:30:37.221Z,19552.00
2018-10-16T12:31:37.419Z,15008.00
2018-10-16T12:32:38.391Z,13600.00
2018-10-16T12:33:37.712Z,12920.00
2018-10-16T12:34:37.814Z,12400.00
2018-10-16T12:35:37.994Z,11880.00
2018-10-16T12:36:38.130Z,11360.00
2018-10-16T12:37:38.338Z,10816.00
2018-10-16T12:38:38.493Z,10364.00
2018-10-16T12:39:38.745Z,9988.00
2018-10-16T12:40:38.910Z,9700.00
2018-10-16T12:41:39.047Z,9500.00
2018-10-16T12:42:39.256Z,9400.00
2018-10-16T12:43:39.410Z,9372.00
2018-10-16T12:44:39.576Z,9332.00
2018-10-16T12:45:39.736Z,9216.00
2018-10-16T12:46:39.909Z,9104.00
2018-10-16T12:47:40.048Z,9028.00
2018-10-16T12:48:40.261Z,8988.00
2018-10-16T12:49:40.377Z,8944.00
2018-10-16T12:50:40.641Z,8804.00
2018-10-16T12:51:40.835Z,8540.00
2018-10-16T12:52:40.966Z,8188.00
2018-10-16T12:53:41.289Z,7876.00
2018-10-16T12:54:41.287Z,7616.00
2018-10-16T12:55:41.440Z,7412.00
2018-10-16T12:56:44.067Z,7272.00
2018-10-16T12:57:41.865Z,7136.00
2018-10-16T12:58:42.093Z,7068.00
2018-10-16T12:59:42.201Z,7092.00
2018-10-16T13:00:42.349Z,7152.00
2018-10-16T13:01:42.537Z,7280.00
2018-10-16T13:02:43.035Z,7444.00
2018-10-16T13:03:43.457Z,7588.00
2018-10-16T13:04:43.041Z,7780.00
2018-10-16T13:05:43.191Z,8024.00
2018-10-16T13:06:43.416Z,8276.00
2018-10-16T13:07:43.630Z,8456.00
2018-10-16T13:08:43.750Z,8540.00
2018-10-16T13:09:43.962Z,8468.00
2018-10-16T13:10:44.069Z,8332.00
2018-10-16T13:11:44.279Z,8140.00
2018-10-16T13:12:44.413Z,7880.00
2018-10-16T13:13:44.648Z,7636.00
2018-10-16T13:14:44.737Z,7428.00
2018-10-16T13:15:46.390Z,7224.00
2018-10-16T13:16:45.446Z,7076.00
2018-10-16T13:17:45.249Z,7016.00
2018-10-16T13:18:47.094Z,7004.00
2018-10-16T13:19:45.955Z,6904.00
2018-10-16T13:20:47.126Z,6680.00
2018-10-16T13:21:45.977Z,6380.00
2018-10-16T13:22:47.463Z,6044.00
2018-10-16T13:24:47.820Z,5364.00
2018-10-16T13:25:47.052Z,5020.00
2018-10-16T13:26:47.519Z,4696.00
2018-10-16T13:27:46.992Z,4440.00
2018-10-16T13:28:50.325Z,4292.00
2018-10-16T13:29:47.335Z,4304.00
2018-10-16T13:31:49.111Z,4680.00
2018-10-16T13:33:48.133Z,5064.00
2018-10-16T13:35:49.377Z,5176.00
2018-10-16T13:36:48.772Z,5132.00
2018-10-16T13:37:48.780Z,5068.00
2018-10-16T13:40:49.910Z,4856.00
2018-10-16T13:41:49.624Z,4800.00
2018-10-16T13:42:49.850Z,4744.00
2018-10-16T13:43:50.220Z,4656.00
2018-10-16T13:44:50.125Z,4508.00
2018-10-16T13:45:50.358Z,4336.00
2018-10-16T13:46:50.419Z,4144.00
2018-10-16T13:47:50.775Z,3992.00
2018-10-16T13:48:50.839Z,3848.00
2018-10-16T13:49:51.074Z,3700.00
2018-10-16T13:50:51.116Z,3560.00
2018-10-16T13:51:51.363Z,3444.00
2018-10-16T13:52:51.567Z,3352.00
2018-10-16T13:53:51.727Z,3312.00
2018-10-16T13:54:51.910Z,3304.00
2018-10-16T13:55:52.065Z,3336.00
2018-10-16T13:56:52.318Z,3416.00
2018-10-16T13:57:52.416Z,3532.00
2018-10-16T13:58:52.683Z,3664.00
2018-10-16T13:59:52.742Z,3752.00
2018-10-16T14:00:53.547Z,3832.00
2018-10-16T14:01:53.125Z,3844.00
2018-10-16T14:02:53.314Z,3844.00
2018-10-16T14:03:53.541Z,3828.00
2018-10-16T14:04:53.903Z,3828.00
2018-10-16T14:05:53.770Z,3832.00
2018-10-16T14:06:53.950Z,3828.00
2018-10-16T14:07:54.181Z,3888.00
2018-10-16T14:08:54.325Z,3972.00
2018-10-16T14:09:54.537Z,4076.00
2018-10-16T14:10:55.355Z,4168.00
2018-10-16T14:11:54.850Z,4268.00
2018-10-16T14:12:55.077Z,4280.00
2018-10-16T14:13:55.171Z,4252.00
2018-10-16T14:14:55.372Z,4232.00
2018-10-16T14:15:55.584Z,4204.00
2018-10-16T14:16:55.704Z,4132.00
2018-10-16T14:17:55.781Z,4032.00
2018-10-16T14:18:56.062Z,3808.00
2018-10-16T14:19:56.238Z,3584.00
2018-10-16T14:20:56.422Z,3456.00
2018-10-16T14:21:56.549Z,3324.00
2018-10-16T14:22:56.744Z,3236.00
2018-10-16T14:23:56.936Z,3168.00
2018-10-16T14:24:57.026Z,3136.00
2018-10-16T14:25:57.231Z,3060.00
2018-10-16T14:26:57.384Z,3044.00
2018-10-16T14:27:57.621Z,3028.00
2018-10-16T14:28:57.807Z,3068.00
2018-10-16T14:29:57.957Z,3040.00
2018-10-16T14:30:58.205Z,2876.00
2018-10-16T14:31:58.312Z,2744.00
2018-10-16T14:32:58.526Z,2668.00
2018-10-16T14:33:58.877Z,2596.00
2018-10-16T14:34:58.915Z,2584.00
2018-10-16T14:35:59.077Z,2608.00
2018-10-16T14:36:59.299Z,2668.00
2018-10-16T14:37:59.439Z,2756.00
2018-10-16T14:38:59.645Z,2920.00
2018-10-16T14:39:59.733Z,3132.00
2018-10-16T14:40:59.917Z,3292.00
2018-10-16T14:42:00.058Z,3480.00
2018-10-16T14:43:00.249Z,3612.00
2018-10-16T14:44:00.388Z,3676.00
2018-10-16T14:45:00.681Z,3840.00
2018-10-16T14:46:00.740Z,4048.00
2018-10-16T14:47:00.997Z,4140.00
2018-10-16T14:48:01.081Z,4076.00
2018-10-16T14:49:01.392Z,3904.00
2018-10-16T14:50:01.535Z,3668.00
2018-10-16T14:51:01.515Z,3460.00
2018-10-16T14:52:01.838Z,3328.00
2018-10-16T14:53:02.047Z,3224.00
2018-10-16T14:54:02.085Z,3112.00
2018-10-16T14:55:02.687Z,3008.00
2018-10-16T14:56:02.548Z,2924.00
2018-10-16T14:57:02.709Z,2844.00
2018-10-16T14:58:02.832Z,2752.00
2018-10-16T14:59:03.070Z,2656.00
2018-10-16T15:00:04.068Z,2556.00
2018-10-16T15:01:03.418Z,2456.00
2018-10-16T15:02:04.325Z,2352.00
2018-10-16T15:03:03.752Z,2268.00
2018-10-16T15:04:04.100Z,2184.00
2018-10-16T15:05:04.188Z,2112.00
2018-10-16T15:06:04.342Z,2060.00
2018-10-16T15:07:04.428Z,2032.00
2018-10-16T15:08:04.661Z,2016.00
2018-10-16T15:09:04.939Z,2028.00
2018-10-16T15:10:05.136Z,2060.00
2018-10-16T15:11:05.266Z,2068.00
2018-10-16T15:12:06.138Z,2076.00
2018-10-16T15:13:05.648Z,2060.00
2018-10-16T15:14:05.758Z,2008.00
2018-10-16T15:15:05.988Z,1936.00
2018-10-16T15:16:06.112Z,1856.00
2018-10-16T15:17:06.221Z,1760.00
2018-10-16T15:18:06.487Z,1672.00
2018-10-16T15:19:06.598Z,1592.00
2018-10-16T15:20:06.861Z,1528.00
2018-10-16T15:21:07.290Z,1488.00
2018-10-16T15:22:07.255Z,1472.00